Terminal Aerodrome Forecast
Issued by NWS

Home | Current Version | Previous Version | Text Only | Print | Product List | Glossary On
Versions: 1 2 3 4 5 6 7 8 9 10 11 12 13
000
FTUS44 KEPZ 270000 RRA
TAFDMN
TAF
KDMN 270000Z 2700/2724 16009KT P6SM SCT070 BKN150
      TEMPO 2700/2704 16012G22KT
     FM270400 08010KT P6SM FEW025 BKN200
     FM272100 17008KT P6SM BKN200=

USA.gov is the U.S. government's official web portal to all federal, state and local government web resources and services.